createdAt,value
2022-10-11T00:02:05.920Z,101108.28
2022-10-11T00:04:34.816Z,101106.69
2022-10-11T00:07:03.832Z,101112.94
2022-10-11T00:09:33.079Z,101116.16
2022-10-11T00:12:02.526Z,101116.16
2022-10-11T00:14:33.646Z,101113.38
2022-10-11T00:17:02.495Z,101119.91
2022-10-11T00:19:32.953Z,101121.41
2022-10-11T00:22:01.890Z,101124.59
2022-10-11T00:24:31.143Z,101122.97
2022-10-11T00:27:01.142Z,101124.34
2022-10-11T00:29:34.659Z,101123.19
2022-10-11T00:32:03.549Z,101137.41
2022-10-11T00:34:32.610Z,101123.41
2022-10-11T00:37:01.184Z,101137.84
2022-10-11T00:39:32.288Z,101138.56
2022-10-11T00:42:00.735Z,101136.78
2022-10-11T00:44:32.287Z,101141.69
2022-10-11T00:47:06.089Z,101142.25
2022-10-11T00:49:37.767Z,101129.09
2022-10-11T00:52:13.732Z,101140.16
2022-10-11T00:54:47.887Z,101131.69
2022-10-11T00:57:21.856Z,101144.72
2022-10-11T00:59:56.994Z,101150.16
2022-10-11T01:02:29.760Z,101154.53
2022-10-11T01:05:25.072Z,101155.97
2022-10-11T01:07:54.695Z,101159.91
2022-10-11T01:10:24.229Z,101164.63
2022-10-11T01:13:02.105Z,101156.88
2022-10-11T01:15:37.511Z,101161.75
2022-10-11T01:18:16.047Z,101165.34
2022-10-11T01:20:54.645Z,101173.47
2022-10-11T01:23:56.229Z,101185.41
2022-10-11T01:26:43.498Z,101181.75
2022-10-11T01:29:21.256Z,101183.72
2022-10-11T01:31:58.502Z,101178.00
2022-10-11T01:34:31.464Z,101179.53
2022-10-11T01:37:05.878Z,101186.47
2022-10-11T01:39:44.618Z,101179.59
2022-10-11T01:42:15.404Z,101180.59
2022-10-11T01:44:48.387Z,101181.31
2022-10-11T01:47:23.946Z,101188.34
2022-10-11T01:49:56.953Z,101188.59
2022-10-11T01:52:29.068Z,101186.00
2022-10-11T01:55:12.073Z,101191.78
2022-10-11T01:57:54.028Z,101193.81
2022-10-11T02:00:28.161Z,101202.84
2022-10-11T02:03:26.465Z,101200.31
2022-10-11T02:06:02.614Z,101198.63
2022-10-11T02:08:39.541Z,101208.88
2022-10-11T02:11:14.403Z,101207.16
2022-10-11T02:13:52.198Z,101204.56
2022-10-11T02:16:25.416Z,101210.97
2022-10-11T02:18:58.651Z,101210.41
2022-10-11T02:21:31.415Z,101216.03
2022-10-11T02:24:05.246Z,101215.50
2022-10-11T02:26:38.970Z,101213.09
2022-10-11T02:29:11.129Z,101220.22
2022-10-11T02:31:41.594Z,101220.47
2022-10-11T02:34:17.047Z,101219.31
2022-10-11T02:36:56.247Z,101219.09
2022-10-11T02:39:30.492Z,101221.06
2022-10-11T02:42:04.534Z,101219.91
2022-10-11T02:44:39.689Z,101221.88
2022-10-11T02:47:13.704Z,101216.81
2022-10-11T02:49:42.714Z,101229.44
2022-10-11T02:52:14.140Z,101231.03
2022-10-11T02:54:42.992Z,101233.72
2022-10-11T02:57:13.045Z,101237.19
2022-10-11T02:59:42.479Z,101237.41
2022-10-11T03:02:12.408Z,101236.94
2022-10-11T03:04:41.224Z,101232.59
2022-10-11T03:07:11.473Z,101245.94
2022-10-11T03:09:44.697Z,101242.72
2022-10-11T03:12:14.791Z,101249.84
2022-10-11T03:14:45.406Z,101246.97
2022-10-11T03:17:35.761Z,101251.13
2022-10-11T03:20:06.448Z,101254.88
2022-10-11T03:22:35.184Z,101259.31
2022-10-11T03:25:09.435Z,101263.31
2022-10-11T03:27:39.492Z,101259.16
2022-10-11T03:30:13.345Z,101268.72
2022-10-11T03:32:45.574Z,101268.63
2022-10-11T03:35:14.852Z,101273.44
2022-10-11T03:37:43.502Z,101275.63
2022-10-11T03:40:16.394Z,101281.22
2022-10-11T03:42:45.107Z,101274.25
2022-10-11T03:45:14.297Z,101279.88
2022-10-11T03:47:47.636Z,101288.16
2022-10-11T03:50:16.504Z,101284.81
2022-10-11T03:52:47.737Z,101290.69
2022-10-11T03:55:20.697Z,101292.06
2022-10-11T03:57:49.638Z,101288.84
2022-10-11T04:00:20.775Z,101291.16
2022-10-11T04:02:49.858Z,101293.00
2022-10-11T04:05:22.291Z,101286.78
2022-10-11T04:07:51.000Z,101305.97
2022-10-11T04:10:22.777Z,101309.75
2022-10-11T04:12:51.742Z,101304.47
2022-10-11T04:15:20.685Z,101309.84
2022-10-11T04:17:49.189Z,101317.78
2022-10-11T04:20:19.319Z,101311.34
2022-10-11T04:22:48.057Z,101319.53
2022-10-11T04:25:16.787Z,101319.16
2022-10-11T04:27:48.052Z,101322.06
2022-10-11T04:30:17.869Z,101320.44
2022-10-11T04:32:47.469Z,101327.31
2022-10-11T04:35:19.693Z,101323.78
2022-10-11T04:37:52.654Z,101325.63
2022-10-11T04:40:24.272Z,101327.78
2022-10-11T04:42:55.347Z,101331.47
2022-10-11T04:45:24.429Z,101335.34
2022-10-11T04:47:54.952Z,101342.16
2022-10-11T04:50:29.294Z,101347.09
2022-10-11T04:52:58.908Z,101346.59
2022-10-11T04:55:29.954Z,101345.34
2022-10-11T04:58:02.644Z,101352.94
2022-10-11T05:00:31.176Z,101354.06
2022-10-11T05:02:59.690Z,101356.38
2022-10-11T05:05:31.114Z,101358.56
2022-10-11T05:08:02.103Z,101361.91
2022-10-11T05:10:32.255Z,101368.31
2022-10-11T05:13:03.610Z,101371.19
2022-10-11T05:15:33.741Z,101360.38
2022-10-11T05:18:03.946Z,101374.28
2022-10-11T05:20:35.215Z,101373.47
2022-10-11T05:23:04.630Z,101366.81
2022-10-11T05:25:34.922Z,101369.25
2022-10-11T05:28:18.120Z,101377.50
2022-10-11T05:30:49.075Z,101377.63
2022-10-11T05:33:18.408Z,101379.25
2022-10-11T05:35:47.275Z,101382.69
2022-10-11T05:38:16.078Z,101386.38
2022-10-11T05:40:47.265Z,101383.63
2022-10-11T05:43:18.694Z,101395.44
2022-10-11T05:45:49.658Z,101394.28
2022-10-11T05:48:21.008Z,101402.69
2022-10-11T05:50:49.829Z,101398.66
2022-10-11T05:53:18.809Z,101400.53
2022-10-11T05:55:47.513Z,101408.44
2022-10-11T05:58:19.267Z,101403.06
2022-10-11T06:00:48.241Z,101415.13
2022-10-11T06:03:19.341Z,101415.00
2022-10-11T06:05:54.451Z,101399.25
2022-10-11T06:08:25.688Z,101406.38
2022-10-11T06:10:54.520Z,101405.47
2022-10-11T06:13:25.472Z,101405.69
2022-10-11T06:15:54.163Z,101411.56
2022-10-11T06:18:24.842Z,101412.25
2022-10-11T06:20:53.741Z,101419.38
2022-10-11T06:23:22.672Z,101421.53
2022-10-11T06:25:58.662Z,101422.34
2022-10-11T06:28:31.926Z,101430.63
2022-10-11T06:31:05.050Z,101429.69
2022-10-11T06:33:37.866Z,101434.97
2022-10-11T06:36:09.386Z,101436.03
2022-10-11T06:38:43.783Z,101430.00
2022-10-11T06:41:15.558Z,101440.13
2022-10-11T06:43:50.509Z,101440.13
2022-10-11T06:46:21.462Z,101440.44
2022-10-11T06:48:51.686Z,101447.28
2022-10-11T06:51:23.205Z,101444.03
2022-10-11T06:53:57.363Z,101452.75
2022-10-11T06:56:27.179Z,101442.34
2022-10-11T06:58:59.930Z,101450.91
2022-10-11T07:01:29.609Z,101455.50
2022-10-11T07:04:02.570Z,101455.50
2022-10-11T07:06:37.804Z,101460.44
2022-10-11T07:09:07.164Z,101452.06
2022-10-11T07:11:36.206Z,101452.91
2022-10-11T07:14:10.382Z,101455.06
2022-10-11T07:16:39.572Z,101457.75
2022-10-11T07:19:10.120Z,101451.06
2022-10-11T07:21:39.010Z,101458.25
2022-10-11T07:24:10.070Z,101460.19
2022-10-11T07:26:39.447Z,101456.00
2022-10-11T07:29:12.388Z,101454.84
2022-10-11T07:31:45.889Z,101462.09
2022-10-11T07:34:19.520Z,101458.28
2022-10-11T07:36:50.635Z,101468.75
2022-10-11T07:39:19.085Z,101474.28
2022-10-11T07:41:48.408Z,101475.19
2022-10-11T07:44:19.088Z,101476.25
2022-10-11T07:46:48.540Z,101480.53
2022-10-11T07:49:19.577Z,101473.94
2022-10-11T07:51:49.348Z,101483.03
2022-10-11T07:54:18.047Z,101480.84
2022-10-11T07:56:46.582Z,101480.53
2022-10-11T07:59:15.122Z,101486.97
2022-10-11T08:01:49.787Z,101492.16
2022-10-11T08:04:20.916Z,101486.19
2022-10-11T08:06:53.370Z,101495.78
2022-10-11T08:09:22.644Z,101492.56
2022-10-11T08:11:51.799Z,101489.38
2022-10-11T08:14:20.755Z,101493.78
2022-10-11T08:16:56.921Z,101492.97
2022-10-11T08:19:35.208Z,101494.38
2022-10-11T08:22:08.507Z,101498.81
2022-10-11T08:24:38.549Z,101493.03
2022-10-11T08:27:08.053Z,101502.03
2022-10-11T08:29:37.053Z,101509.75
2022-10-11T08:32:11.746Z,101492.59
2022-10-11T08:34:40.887Z,101505.53
2022-10-11T08:37:09.746Z,101502.91
2022-10-11T08:39:38.837Z,101501.94
2022-10-11T08:42:12.808Z,101512.06
2022-10-11T08:45:09.527Z,101503.50
2022-10-11T08:47:42.594Z,101512.56
2022-10-11T08:50:21.237Z,101520.25
2022-10-11T08:52:55.526Z,101512.03
2022-10-11T08:55:33.537Z,101519.66
2022-10-11T08:58:03.657Z,101512.72
2022-10-11T09:00:35.714Z,101520.06
2022-10-11T09:03:26.661Z,101512.63
2022-10-11T09:06:09.156Z,101521.06
2022-10-11T09:08:49.448Z,101516.38
2022-10-11T09:11:27.959Z,101525.47
2022-10-11T09:14:13.584Z,101516.91
2022-10-11T09:17:00.970Z,101520.91
2022-10-11T09:19:57.626Z,101519.19
2022-10-11T09:22:34.993Z,101523.84
2022-10-11T09:25:25.062Z,101522.91
2022-10-11T09:28:07.581Z,101526.03
2022-10-11T09:30:41.612Z,101525.44
2022-10-11T09:33:19.572Z,101513.25
2022-10-11T09:35:52.879Z,101519.19
2022-10-11T09:38:33.026Z,101516.28
2022-10-11T09:41:12.647Z,101532.22
2022-10-11T09:43:41.656Z,101531.53
2022-10-11T09:46:21.516Z,101519.66
2022-10-11T09:48:54.246Z,101523.09
2022-10-11T09:51:29.153Z,101521.44
2022-10-11T09:54:07.012Z,101533.72
2022-10-11T09:56:42.645Z,101524.31
2022-10-11T09:59:30.017Z,101526.09
2022-10-11T10:02:22.871Z,101524.75
2022-10-11T10:05:16.303Z,101527.06
2022-10-11T10:08:12.012Z,101519.47
2022-10-11T10:10:42.355Z,101521.56
2022-10-11T10:13:23.764Z,101526.13
2022-10-11T10:15:55.150Z,101535.59
2022-10-11T10:18:29.076Z,101530.84
2022-10-11T10:21:01.329Z,101524.78
2022-10-11T10:23:34.635Z,101532.75
2022-10-11T10:26:15.589Z,101531.59
2022-10-11T10:28:58.802Z,101529.13
2022-10-11T10:31:49.421Z,101537.56
2022-10-11T10:34:29.703Z,101527.75
2022-10-11T10:37:05.665Z,101523.06
2022-10-11T10:39:42.386Z,101530.47
2022-10-11T10:42:17.287Z,101527.88
2022-10-11T10:44:48.601Z,101523.56
2022-10-11T10:47:26.388Z,101522.56
2022-10-11T10:50:05.329Z,101522.06
2022-10-11T10:52:58.932Z,101518.38
2022-10-11T10:55:40.958Z,101519.75
2022-10-11T10:58:35.863Z,101526.59
2022-10-11T11:01:15.320Z,101526.66
2022-10-11T11:03:49.057Z,101528.94
2022-10-11T11:06:32.831Z,101526.94
2022-10-11T11:09:23.330Z,101525.59
2022-10-11T11:12:08.281Z,101513.91
2022-10-11T11:14:52.095Z,101511.03
2022-10-11T11:17:29.473Z,101509.81
2022-10-11T11:20:08.312Z,101513.41
2022-10-11T11:22:47.303Z,101520.53
2022-10-11T11:25:31.661Z,101509.44
2022-10-11T11:28:18.664Z,101510.50
2022-10-11T11:30:59.221Z,101520.69
2022-10-11T11:33:47.820Z,101518.88
2022-10-11T11:36:23.972Z,101511.38
2022-10-11T11:39:01.461Z,101524.31
2022-10-11T11:41:36.164Z,101518.75
2022-10-11T11:44:13.170Z,101513.03
2022-10-11T11:46:46.282Z,101518.75
2022-10-11T11:49:23.369Z,101508.72
2022-10-11T11:51:52.907Z,101507.41
2022-10-11T11:54:32.961Z,101504.13
2022-10-11T11:57:10.736Z,101503.38
2022-10-11T11:59:47.654Z,101507.09
2022-10-11T12:02:33.365Z,101505.59
2022-10-11T12:05:02.389Z,101502.22
2022-10-11T12:07:32.069Z,101499.88
2022-10-11T12:10:24.936Z,101496.91
2022-10-11T12:13:07.987Z,101502.13
2022-10-11T12:15:41.719Z,101503.06
2022-10-11T12:18:18.823Z,101498.84
2022-10-11T12:20:47.697Z,101514.53
2022-10-11T12:23:51.600Z,101492.72
2022-10-11T12:26:45.209Z,101500.44
2022-10-11T12:29:44.260Z,101499.31
2022-10-11T12:33:03.903Z,101508.19
2022-10-11T12:35:53.275Z,101514.69
2022-10-11T12:38:26.478Z,101515.13
2022-10-11T12:41:03.162Z,101517.59
2022-10-11T12:43:35.726Z,101508.34
2022-10-11T12:46:49.303Z,101517.03
2022-10-11T12:49:32.764Z,101512.25
2022-10-11T12:52:03.647Z,101507.34
2022-10-11T12:55:04.701Z,101503.88
2022-10-11T12:57:52.276Z,101502.31
2022-10-11T13:00:29.122Z,101508.16
2022-10-11T13:03:02.798Z,101498.13
2022-10-11T13:05:45.146Z,101502.34
2022-10-11T13:08:18.493Z,101493.97
2022-10-11T13:10:49.629Z,101497.59
2022-10-11T13:13:25.854Z,101504.47
2022-10-11T13:15:56.605Z,101505.66
2022-10-11T13:18:27.671Z,101499.03
2022-10-11T13:21:01.778Z,101499.19
2022-10-11T13:23:32.635Z,101501.03
2022-10-11T13:26:03.468Z,101498.00
2022-10-11T13:28:36.502Z,101498.56
2022-10-11T13:31:10.705Z,101493.19
2022-10-11T13:33:44.415Z,101485.97
2022-10-11T13:36:18.069Z,101502.09
2022-10-11T13:38:55.567Z,101494.47
2022-10-11T13:41:29.934Z,101493.06
2022-10-11T13:44:03.048Z,101494.69
2022-10-11T13:46:33.979Z,101492.22
2022-10-11T13:49:05.172Z,101486.63
2022-10-11T13:51:38.261Z,101487.22
2022-10-11T13:54:13.070Z,101488.44
2022-10-11T13:56:51.025Z,101494.28
2022-10-11T13:59:22.859Z,101488.25
2022-10-11T14:01:56.266Z,101489.88
2022-10-11T14:04:29.572Z,101486.03
2022-10-11T14:07:06.336Z,101480.06
2022-10-11T14:09:37.473Z,101484.63
2022-10-11T14:12:35.416Z,101489.13
2022-10-11T14:15:05.569Z,101483.22
2022-10-11T14:17:41.467Z,101484.19
2022-10-11T14:20:19.684Z,101488.97
2022-10-11T14:22:54.478Z,101481.81
2022-10-11T14:25:23.503Z,101487.00
2022-10-11T14:27:53.930Z,101489.41
2022-10-11T14:30:26.953Z,101492.59
2022-10-11T14:33:01.142Z,101494.19
2022-10-11T14:35:33.966Z,101492.19
2022-10-11T14:38:04.833Z,101497.38
2022-10-11T14:40:33.712Z,101488.59
2022-10-11T14:43:02.088Z,101500.16
2022-10-11T14:45:32.597Z,101492.59
2022-10-11T14:48:01.582Z,101489.34
2022-10-11T14:50:40.835Z,101486.47
2022-10-11T14:53:12.530Z,101482.72
2022-10-11T14:55:43.967Z,101490.81
2022-10-11T14:58:15.898Z,101483.25
2022-10-11T15:00:48.370Z,101477.69
2022-10-11T15:03:17.381Z,101489.91
2022-10-11T15:05:46.229Z,101485.84
2022-10-11T15:08:17.516Z,101480.63
2022-10-11T15:10:46.785Z,101480.69
2022-10-11T15:13:15.450Z,101481.00
2022-10-11T15:15:45.539Z,101488.41
2022-10-11T15:18:17.866Z,101489.75
2022-10-11T15:20:48.307Z,101488.94
2022-10-11T15:23:18.986Z,101484.56
2022-10-11T15:25:50.123Z,101482.13
2022-10-11T15:28:26.918Z,101483.31
2022-10-11T15:30:58.714Z,101482.22
2022-10-11T15:33:30.141Z,101483.00
2022-10-11T15:36:00.911Z,101486.16
2022-10-11T15:38:34.465Z,101489.72
2022-10-11T15:41:03.414Z,101490.16
2022-10-11T15:43:32.312Z,101494.94
2022-10-11T15:46:01.315Z,101494.47
2022-10-11T15:48:30.022Z,101492.41
2022-10-11T15:50:59.727Z,101497.16
2022-10-11T15:53:31.608Z,101497.47
2022-10-11T15:56:06.050Z,101488.66
2022-10-11T15:58:37.251Z,101496.59
2022-10-11T16:01:10.891Z,101491.34
2022-10-11T16:03:39.797Z,101494.09
2022-10-11T16:06:09.585Z,101483.25
2022-10-11T16:08:39.319Z,101488.00
2022-10-11T16:11:11.944Z,101494.69
2022-10-11T16:13:47.754Z,101501.81
2022-10-11T16:16:19.397Z,101498.19
2022-10-11T16:18:48.344Z,101502.53
2022-10-11T16:21:17.570Z,101508.09
2022-10-11T16:23:48.928Z,101507.75
2022-10-11T16:26:19.994Z,101504.09
2022-10-11T16:28:49.138Z,101506.91
2022-10-11T16:31:22.266Z,101510.84
2022-10-11T16:33:52.884Z,101505.66
2022-10-11T16:36:39.929Z,101508.78
2022-10-11T16:39:11.180Z,101504.81
2022-10-11T16:41:46.802Z,101506.81
2022-10-11T16:44:18.649Z,101512.72
2022-10-11T16:46:49.108Z,101511.09
2022-10-11T16:49:19.125Z,101518.22
2022-10-11T16:51:49.963Z,101508.56
2022-10-11T16:54:20.687Z,101517.69
2022-10-11T16:56:53.108Z,101520.34
2022-10-11T16:59:22.030Z,101515.50
2022-10-11T17:01:51.341Z,101518.25
2022-10-11T17:04:20.984Z,101511.34
2022-10-11T17:06:49.754Z,101514.50
2022-10-11T17:09:18.769Z,101522.00
2022-10-11T17:11:47.476Z,101519.50
2022-10-11T17:14:21.850Z,101513.75
2022-10-11T17:16:50.631Z,101517.91
2022-10-11T17:19:20.518Z,101521.41
2022-10-11T17:21:49.255Z,101519.28
2022-10-11T17:24:17.884Z,101514.75
2022-10-11T17:26:46.877Z,101516.47
2022-10-11T17:29:20.607Z,101512.72
2022-10-11T17:31:49.975Z,101518.66
2022-10-11T17:34:20.010Z,101516.13
2022-10-11T17:36:49.266Z,101512.50
2022-10-11T17:39:21.868Z,101518.84
2022-10-11T17:41:53.939Z,101521.84
2022-10-11T17:44:25.078Z,101522.69
2022-10-11T17:46:53.796Z,101529.53
2022-10-11T17:49:22.985Z,101534.25
2022-10-11T17:51:52.135Z,101525.38
2022-10-11T17:54:20.942Z,101522.25
2022-10-11T17:56:49.788Z,101530.13
2022-10-11T17:59:22.443Z,101523.50
2022-10-11T18:01:56.343Z,101534.81
2022-10-11T18:04:26.988Z,101526.06
2022-10-11T18:06:59.593Z,101524.25
2022-10-11T18:09:29.625Z,101513.09
2022-10-11T18:11:58.250Z,101510.50
2022-10-11T18:14:27.145Z,101519.34
2022-10-11T18:16:57.983Z,101513.38
2022-10-11T18:19:27.060Z,101513.81
2022-10-11T18:21:56.171Z,101516.44
2022-10-11T18:24:24.913Z,101520.31
2022-10-11T18:26:53.410Z,101526.03
2022-10-11T18:29:22.089Z,101525.81
2022-10-11T18:31:50.923Z,101527.09
2022-10-11T18:34:22.086Z,101523.16
2022-10-11T18:36:50.668Z,101522.19
2022-10-11T18:39:21.500Z,101521.22
2022-10-11T18:41:50.769Z,101519.69
2022-10-11T18:44:19.887Z,101517.53
2022-10-11T18:46:50.503Z,101513.88
2022-10-11T18:49:19.294Z,101510.59
2022-10-11T18:51:53.254Z,101510.03
2022-10-11T18:54:22.258Z,101507.66
2022-10-11T18:56:51.594Z,101508.72
2022-10-11T18:59:22.100Z,101508.81
2022-10-11T19:01:51.686Z,101510.50
2022-10-11T19:04:21.699Z,101508.81
2022-10-11T19:06:53.145Z,101501.84
2022-10-11T19:09:25.163Z,101505.16
2022-10-11T19:11:56.185Z,101506.78
2022-10-11T19:14:27.853Z,101504.81
2022-10-11T19:17:00.198Z,101504.28
2022-10-11T19:19:32.384Z,101503.63
2022-10-11T19:22:06.953Z,101505.44
2022-10-11T19:24:35.633Z,101508.91
2022-10-11T19:27:04.332Z,101508.63
2022-10-11T19:29:36.981Z,101492.91
2022-10-11T19:32:06.296Z,101493.00
2022-10-11T19:34:36.385Z,101501.72
2022-10-11T19:37:07.227Z,101503.97
2022-10-11T19:39:37.491Z,101501.81
2022-10-11T19:42:08.726Z,101498.31
2022-10-11T19:44:39.653Z,101504.66
2022-10-11T19:47:10.042Z,101497.00
2022-10-11T19:49:39.377Z,101499.78
2022-10-11T19:52:12.802Z,101496.75
2022-10-11T19:54:43.011Z,101501.56
2022-10-11T19:57:11.816Z,101511.25
2022-10-11T19:59:40.957Z,101508.06
2022-10-11T20:02:11.445Z,101504.19
2022-10-11T20:04:57.761Z,101516.88
2022-10-11T20:07:30.162Z,101511.34
2022-10-11T20:10:02.104Z,101509.97
2022-10-11T20:12:31.415Z,101508.06
2022-10-11T20:15:00.908Z,101508.94
2022-10-11T20:17:48.661Z,101507.34
2022-10-11T20:20:19.502Z,101503.09
2022-10-11T20:22:50.653Z,101509.47
2022-10-11T20:25:19.706Z,101512.22
2022-10-11T20:27:48.397Z,101514.97
2022-10-11T20:30:17.807Z,101507.97
2022-10-11T20:32:46.489Z,101508.69
2022-10-11T20:35:16.381Z,101517.22
2022-10-11T20:37:45.218Z,101511.22
2022-10-11T20:40:17.134Z,101515.03
2022-10-11T20:42:46.217Z,101517.56
2022-10-11T20:45:15.670Z,101514.25
2022-10-11T20:47:44.616Z,101517.00
2022-10-11T20:50:13.753Z,101515.97
2022-10-11T20:52:44.094Z,101512.28
2022-10-11T20:55:13.097Z,101507.22
2022-10-11T20:57:44.480Z,101512.97
2022-10-11T21:00:16.502Z,101508.59
2022-10-11T21:02:51.226Z,101509.97
2022-10-11T21:05:20.245Z,101503.53
2022-10-11T21:07:50.019Z,101512.50
2022-10-11T21:10:22.379Z,101514.00
2022-10-11T21:12:53.238Z,101508.69
2022-10-11T21:15:21.994Z,101512.38
2022-10-11T21:17:59.477Z,101512.84
2022-10-11T21:20:29.386Z,101513.41
2022-10-11T21:23:00.463Z,101513.97
2022-10-11T21:25:33.006Z,101518.00
2022-10-11T21:28:10.017Z,101516.94
2022-10-11T21:30:41.729Z,101519.91
2022-10-11T21:33:10.685Z,101519.00
2022-10-11T21:35:41.056Z,101520.03
2022-10-11T21:38:14.947Z,101525.41
2022-10-11T21:40:43.732Z,101521.25
2022-10-11T21:43:15.555Z,101516.31
2022-10-11T21:45:46.863Z,101519.28
2022-10-11T21:48:15.993Z,101528.22
2022-10-11T21:50:45.514Z,101526.38
2022-10-11T21:53:14.593Z,101523.63
2022-10-11T21:55:47.114Z,101514.81
2022-10-11T21:58:20.619Z,101520.44
2022-10-11T22:00:49.295Z,101520.44
2022-10-11T22:03:21.098Z,101522.19
2022-10-11T22:06:01.967Z,101523.16
2022-10-11T22:08:31.927Z,101519.22
2022-10-11T22:11:02.200Z,101518.41
2022-10-11T22:13:34.771Z,101523.69
2022-10-11T22:16:05.081Z,101521.09
2022-10-11T22:18:41.668Z,101526.41
2022-10-11T22:21:17.738Z,101519.47
2022-10-11T22:23:51.489Z,101514.75
2022-10-11T22:26:22.210Z,101513.25
2022-10-11T22:28:53.973Z,101517.38
2022-10-11T22:31:23.805Z,101517.56
2022-10-11T22:33:59.184Z,101518.94
2022-10-11T22:36:33.423Z,101514.44
2022-10-11T22:39:07.105Z,101521.34
2022-10-11T22:41:36.729Z,101521.56
2022-10-11T22:44:07.881Z,101516.94
2022-10-11T22:46:37.051Z,101523.22
2022-10-11T22:49:05.914Z,101514.69
2022-10-11T22:51:34.334Z,101511.72
2022-10-11T22:54:03.185Z,101515.81
2022-10-11T22:56:33.064Z,101510.00
2022-10-11T22:59:01.931Z,101519.22
2022-10-11T23:01:35.242Z,101512.03
2022-10-11T23:04:05.963Z,101508.69
2022-10-11T23:06:38.206Z,101512.09
2022-10-11T23:09:06.991Z,101509.56
2022-10-11T23:11:37.336Z,101513.69
2022-10-11T23:14:06.661Z,101513.69
2022-10-11T23:16:37.854Z,101509.00
2022-10-11T23:19:06.254Z,101517.84
2022-10-11T23:21:35.142Z,101529.47
2022-10-11T23:24:05.139Z,101517.16
2022-10-11T23:26:33.713Z,101522.84
2022-10-11T23:29:02.698Z,101524.47
2022-10-11T23:31:31.724Z,101525.53
2022-10-11T23:34:08.090Z,101527.50
2022-10-11T23:36:36.831Z,101526.34
2022-10-11T23:39:05.973Z,101537.38
2022-10-11T23:41:34.879Z,101531.38
2022-10-11T23:44:08.916Z,101533.94
2022-10-11T23:46:38.450Z,101540.25
2022-10-11T23:49:09.544Z,101529.63
2022-10-11T23:51:38.852Z,101533.38
2022-10-11T23:54:08.469Z,101537.28
2022-10-11T23:56:37.541Z,101542.13
2022-10-11T23:59:08.624Z,101544.69
